Time;durP1;ratioP1;P1;durP2;ratioP2;P2;SDS_P1;SDS_P2;PMS_P1;PMS_P2;Temp;Humidity;BMP_temperature;BMP_pressure;BME280_temperature;BME280_humidity;BME280_pressure;Samples;Min_cycle;Max_cycle;Signal;HPM_P1;HPM_P2
2021/03/22 00:00:37;;;;;;;23.53;6.60;;;4.00;98.50;;;;;;4375324;32;20224;-64
2021/03/22 00:03:04;;;;;;;32.33;8.07;;;3.90;98.40;;;;;;4377364;32;20184;-64
2021/03/22 00:05:33;;;;;;;28.57;6.93;;;4.00;98.20;;;;;;4367905;32;20169;-64
2021/03/22 00:08:03;;;;;;;23.13;7.73;;;3.90;98.00;;;;;;4377548;32;20600;-67
2021/03/22 00:10:32;;;;;;;20.67;7.00;;;3.90;97.90;;;;;;4374203;32;20225;-68
2021/03/22 00:12:58;;;;;;;21.27;7.00;;;3.90;98.00;;;;;;4373012;32;20511;-66
2021/03/22 00:15:26;;;;;;;21.13;7.60;;;3.80;98.00;;;;;;4376638;32;20210;-67
2021/03/22 00:17:58;;;;;;;25.13;7.13;;;3.90;98.00;;;;;;4376754;32;20165;-64
2021/03/22 00:20:25;;;;;;;22.63;7.70;;;3.80;98.10;;;;;;4370380;32;20176;-66
2021/03/22 00:23:06;;;;;;;29.10;8.03;;;3.90;98.00;;;;;;4376579;32;20170;-67
2021/03/22 00:25:33;;;;;;;22.60;6.43;;;3.80;98.00;;;;;;4377503;32;20168;-65
2021/03/22 00:27:59;;;;;;;29.43;7.63;;;3.80;98.10;;;;;;4374475;32;20593;-64
2021/03/22 00:30:30;;;;;;;31.90;7.47;;;3.80;98.10;;;;;;4376415;32;20197;-66
2021/03/22 00:32:59;;;;;;;23.13;6.50;;;3.80;98.10;;;;;;4375741;32;20531;-66
2021/03/22 00:35:28;;;;;;;21.00;6.67;;;3.80;98.00;;;;;;4376503;32;20553;-65
2021/03/22 00:37:58;;;;;;;20.03;7.07;;;3.70;97.90;;;;;;4377050;32;20167;-65
2021/03/22 00:40:28;;;;;;;27.37;7.17;;;3.70;98.00;;;;;;4377032;32;20179;-64
2021/03/22 00:42:55;;;;;;;21.33;6.63;;;3.70;98.00;;;;;;4370286;32;20163;-67
2021/03/22 00:45:22;;;;;;;28.73;8.63;;;3.60;97.90;;;;;;4375958;32;20166;-66
2021/03/22 00:47:53;;;;;;;23.00;7.10;;;3.60;98.00;;;;;;4387237;32;20188;-65
2021/03/22 00:50:25;;;;;;;31.77;8.53;;;3.50;97.90;;;;;;4388435;32;20687;-65
2021/03/22 00:52:58;;;;;;;26.23;7.77;;;3.50;97.90;;;;;;4390766;32;20179;-67
2021/03/22 00:55:30;;;;;;;27.77;7.13;;;3.40;97.90;;;;;;4392144;32;20204;-68
2021/03/22 00:58:03;;;;;;;25.20;7.47;;;3.50;97.90;;;;;;4390232;32;20577;-64
2021/03/22 01:00:36;;;;;;;26.40;6.93;;;3.40;97.90;;;;;;4391421;32;20180;-64
2021/03/22 01:03:03;;;;;;;23.43;6.90;;;3.40;98.00;;;;;;4391065;32;20160;-64
2021/03/22 01:05:30;;;;;;;25.53;7.00;;;3.30;97.90;;;;;;4391175;32;20160;-67
2021/03/22 01:07:57;;;;;;;17.80;6.33;;;3.30;98.00;;;;;;4390612;32;20247;-64
2021/03/22 01:10:36;;;;;;;24.10;7.17;;;3.30;98.10;;;;;;4391078;32;20242;-67
2021/03/22 01:13:04;;;;;;;24.50;6.60;;;3.30;98.00;;;;;;4392221;32;20234;-64
2021/03/22 01:15:31;;;;;;;23.07;6.83;;;3.30;97.90;;;;;;4390226;32;20198;-64
2021/03/22 01:17:57;;;;;;;22.73;6.73;;;3.30;98.00;;;;;;4390793;32;20161;-64
2021/03/22 01:20:35;;;;;;;23.83;6.70;;;3.20;98.10;;;;;;4388162;32;20187;-64
2021/03/22 01:23:01;;;;;;;22.60;7.63;;;3.20;98.10;;;;;;4391724;32;20598;-64
2021/03/22 01:25:29;;;;;;;26.37;7.03;;;3.10;98.10;;;;;;4390095;32;20162;-63
2021/03/22 01:27:56;;;;;;;25.03;7.20;;;3.10;98.20;;;;;;4390166;32;20258;-67
2021/03/22 01:30:31;;;;;;;24.83;7.20;;;3.10;98.30;;;;;;4390841;32;20237;-66
2021/03/22 01:32:59;;;;;;;24.77;7.17;;;3.10;98.30;;;;;;4378864;32;20569;-68
2021/03/22 01:35:26;;;;;;;26.27;8.00;;;3.10;98.30;;;;;;4389825;32;20200;-69
2021/03/22 01:37:52;;;;;;;24.73;8.03;;;3.00;98.40;;;;;;4389762;32;20160;-67
2021/03/22 01:40:36;;;;;;;25.83;8.03;;;3.00;98.40;;;;;;4389559;32;20774;-66
2021/03/22 01:43:07;;;;;;;25.30;7.63;;;3.10;98.30;;;;;;4384615;32;20164;-64
2021/03/22 01:45:33;;;;;;;17.77;7.17;;;3.10;98.30;;;;;;4391712;32;20677;-68
2021/03/22 01:48:00;;;;;;;32.00;8.63;;;3.00;98.30;;;;;;4389521;32;20191;-66
2021/03/22 01:50:31;;;;;;;27.03;8.27;;;3.00;98.30;;;;;;4390926;32;20242;-67
2021/03/22 01:52:59;;;;;;;24.63;8.20;;;3.00;98.30;;;;;;4390938;32;20722;-65
2021/03/22 01:55:28;;;;;;;23.17;8.87;;;3.00;98.40;;;;;;4388404;32;20484;-67
2021/03/22 01:57:55;;;;;;;33.40;9.10;;;3.00;98.50;;;;;;4391720;32;20153;-67
2021/03/22 02:00:27;;;;;;;35.80;9.67;;;3.00;98.60;;;;;;4390677;32;20171;-68
2021/03/22 02:02:57;;;;;;;24.30;9.33;;;3.10;98.70;;;;;;4391081;32;20160;-66
2021/03/22 02:05:26;;;;;;;25.40;9.00;;;3.10;98.90;;;;;;4390136;32;20195;-67
2021/03/22 02:07:58;;;;;;;28.20;9.67;;;3.20;98.90;;;;;;4387739;32;20180;-68
2021/03/22 02:10:28;;;;;;;27.30;7.97;;;3.30;98.90;;;;;;4389290;32;20206;-67
2021/03/22 02:12:55;;;;;;;25.60;9.13;;;3.40;98.80;;;;;;4389920;32;20160;-67
2021/03/22 02:15:25;;;;;;;29.67;8.60;;;3.50;98.70;;;;;;4391881;32;20156;-67
2021/03/22 02:18:04;;;;;;;33.10;9.30;;;3.60;98.60;;;;;;4389511;32;20163;-66
2021/03/22 02:21:16;;;;;;;30.07;9.23;;;3.70;98.60;;;;;;4381409;32;20157;-63
2021/03/22 02:24:20;;;;;;;31.87;8.93;;;3.90;98.40;;;;;;4387840;32;20175;-66
2021/03/22 02:27:23;;;;;;;31.20;11.23;;;4.10;98.20;;;;;;4382126;32;20222;-65
2021/03/22 02:30:21;;;;;;;34.73;9.03;;;4.30;98.00;;;;;;4388755;32;20179;-64
2021/03/22 02:33:27;;;;;;;32.20;10.87;;;4.40;97.80;;;;;;4385901;32;20210;-65
2021/03/22 02:36:02;;;;;;;32.90;9.80;;;4.50;97.90;;;;;;4389853;32;20182;-65
2021/03/22 02:38:32;;;;;;;34.93;9.17;;;4.60;97.90;;;;;;4389492;32;20162;-67
2021/03/22 02:41:06;;;;;;;25.27;8.80;;;4.70;97.60;;;;;;4389943;32;20180;-67
2021/03/22 02:43:35;;;;;;;39.47;10.70;;;4.70;97.50;;;;;;4386457;32;20188;-68
2021/03/22 02:46:02;;;;;;;35.43;10.77;;;4.80;97.70;;;;;;4388035;32;20201;-65
2021/03/22 02:48:32;;;;;;;35.20;10.87;;;4.70;97.90;;;;;;4389377;32;20156;-67
2021/03/22 02:51:08;;;;;;;41.63;10.80;;;4.80;98.10;;;;;;4387464;32;20536;-64
2021/03/22 02:53:46;;;;;;;47.90;9.87;;;4.90;98.20;;;;;;4387499;32;20171;-64
2021/03/22 02:56:29;;;;;;;32.40;10.17;;;4.90;97.90;;;;;;4390681;32;20627;-66
2021/03/22 02:59:00;;;;;;;27.50;10.53;;;4.90;97.90;;;;;;4389635;32;20160;-67
2021/03/22 03:01:32;;;;;;;39.93;10.33;;;5.00;98.10;;;;;;4389359;32;20603;-67
2021/03/22 03:04:01;;;;;;;38.73;10.03;;;5.00;98.20;;;;;;4387985;32;20221;-65
2021/03/22 03:06:53;;;;;;;32.83;10.03;;;5.00;98.20;;;;;;4386271;32;20158;-64
2021/03/22 03:09:22;;;;;;;36.27;9.63;;;5.10;97.90;;;;;;4389498;32;20164;-66
2021/03/22 03:11:49;;;;;;;43.13;10.77;;;5.10;97.70;;;;;;4388854;32;20164;-67
2021/03/22 03:14:17;;;;;;;34.43;9.40;;;5.10;97.90;;;;;;4385905;32;20156;-67
2021/03/22 03:16:46;;;;;;;40.23;11.33;;;5.20;97.90;;;;;;4386487;32;20156;-62
2021/03/22 03:19:13;;;;;;;27.30;9.10;;;5.20;98.00;;;;;;4391343;32;20152;-65
2021/03/22 03:21:49;;;;;;;29.73;9.47;;;5.20;98.00;;;;;;4392333;32;20515;-66
2021/03/22 03:24:15;;;;;;;33.30;9.50;;;5.20;98.00;;;;;;4391386;32;20218;-64
2021/03/22 03:26:42;;;;;;;33.67;9.57;;;5.20;98.00;;;;;;4391581;32;20198;-67
2021/03/22 03:29:08;;;;;;;34.57;9.00;;;5.20;98.10;;;;;;4392004;32;20187;-66
2021/03/22 03:31:35;;;;;;;37.30;9.57;;;5.30;98.00;;;;;;4392443;32;20160;-63
2021/03/22 03:34:02;;;;;;;29.20;8.23;;;5.30;97.90;;;;;;4392784;32;20164;-67
2021/03/22 03:36:29;;;;;;;37.47;8.80;;;5.30;98.00;;;;;;4391510;32;20151;-66
2021/03/22 03:38:58;;;;;;;27.80;8.93;;;5.30;98.00;;;;;;4392142;32;20171;-63
2021/03/22 03:41:27;;;;;;;44.20;8.57;;;5.40;97.80;;;;;;4387907;32;20216;-64
2021/03/22 03:44:10;;;;;;;27.67;8.67;;;5.30;97.90;;;;;;4391679;32;20194;-65
2021/03/22 03:46:39;;;;;;;37.87;8.07;;;5.30;97.90;;;;;;4391076;32;20553;-63
2021/03/22 03:49:07;;;;;;;33.73;9.53;;;5.40;97.80;;;;;;4391793;32;20169;-67
2021/03/22 03:51:38;;;;;;;28.03;7.80;;;5.40;97.50;;;;;;4392073;32;20156;-67
2021/03/22 03:54:06;;;;;;;26.20;8.60;;;5.40;97.80;;;;;;4390094;32;20172;-63
2021/03/22 03:56:33;;;;;;;43.60;9.57;;;5.50;97.80;;;;;;4392326;32;20238;-66
2021/03/22 03:59:04;;;;;;;24.83;7.83;;;5.50;97.80;;;;;;4395068;32;20156;-66
2021/03/22 04:01:30;;;;;;;34.80;8.20;;;5.50;97.80;;;;;;4390750;32;20289;-65
2021/03/22 04:04:01;;;;;;;41.47;9.67;;;5.50;97.60;;;;;;4391827;32;20238;-65
2021/03/22 04:06:34;;;;;;;33.63;9.13;;;5.50;97.70;;;;;;4387298;32;20232;-64
2021/03/22 04:09:09;;;;;;;25.43;8.47;;;5.50;97.80;;;;;;4392003;32;20195;-66
2021/03/22 04:11:39;;;;;;;31.27;8.47;;;5.50;97.70;;;;;;4393666;32;20156;-64
2021/03/22 04:14:15;;;;;;;31.40;9.20;;;5.50;97.70;;;;;;4394027;32;20160;-65
2021/03/22 04:16:47;;;;;;;23.83;7.83;;;5.50;97.80;;;;;;4392617;32;20148;-67
2021/03/22 04:19:13;;;;;;;31.33;8.73;;;5.50;97.90;;;;;;4388702;32;20160;-65
2021/03/22 04:21:47;;;;;;;31.97;7.53;;;5.60;97.80;;;;;;4392578;32;20195;-64
2021/03/22 04:24:16;;;;;;;33.03;7.43;;;5.60;97.90;;;;;;4392971;32;20622;-65
2021/03/22 04:26:43;;;;;;;30.40;7.70;;;5.50;97.90;;;;;;4391622;32;20206;-65
2021/03/22 04:29:13;;;;;;;36.80;9.20;;;5.50;98.10;;;;;;4394192;32;20183;-64
2021/03/22 04:31:40;;;;;;;47.70;7.80;;;5.50;98.10;;;;;;4390514;32;20179;-63
2021/03/22 04:34:11;;;;;;;27.80;7.17;;;5.40;98.20;;;;;;4391341;32;20196;-66
2021/03/22 04:36:41;;;;;;;33.97;7.53;;;5.40;98.20;;;;;;4391838;32;20286;-63
2021/03/22 04:39:09;;;;;;;35.47;7.87;;;5.40;98.20;;;;;;4392139;32;20179;-65
2021/03/22 04:41:39;;;;;;;39.93;7.83;;;5.50;98.30;;;;;;4392276;32;20511;-64
2021/03/22 04:44:07;;;;;;;35.23;7.87;;;5.40;98.20;;;;;;4390064;32;20152;-64
2021/03/22 04:46:34;;;;;;;30.30;7.13;;;5.40;98.50;;;;;;4391517;32;20626;-66
2021/03/22 04:49:01;;;;;;;30.93;6.83;;;5.50;98.20;;;;;;4382092;32;20230;-67
2021/03/22 04:51:31;;;;;;;34.80;7.87;;;5.50;98.10;;;;;;4383244;32;20164;-66
2021/03/22 04:53:58;;;;;;;27.03;6.73;;;5.60;98.00;;;;;;4376444;32;20255;-65
2021/03/22 04:56:28;;;;;;;30.57;7.63;;;5.60;98.00;;;;;;4377439;32;20164;-64
2021/03/22 04:58:59;;;;;;;30.77;7.30;;;5.60;98.00;;;;;;4370440;32;20195;-68
2021/03/22 05:01:26;;;;;;;25.00;6.23;;;5.50;98.10;;;;;;4370423;32;20171;-65
2021/03/22 05:03:52;;;;;;;32.47;7.10;;;5.50;98.10;;;;;;4377354;32;20176;-65
2021/03/22 05:06:22;;;;;;;29.23;7.33;;;5.40;98.20;;;;;;4378021;32;20160;-65
2021/03/22 05:08:51;;;;;;;30.93;7.80;;;5.50;98.20;;;;;;4369465;32;20165;-64
2021/03/22 05:11:26;;;;;;;31.57;6.90;;;5.50;98.20;;;;;;4373174;32;20200;-65
2021/03/22 05:13:52;;;;;;;25.90;7.57;;;5.50;98.10;;;;;;4376288;32;20224;-64
2021/03/22 05:16:19;;;;;;;21.67;5.73;;;5.60;98.10;;;;;;4377616;32;20175;-67
2021/03/22 05:18:47;;;;;;;26.50;5.80;;;5.60;98.00;;;;;;4373208;32;20176;-66
2021/03/22 05:21:13;;;;;;;33.57;6.57;;;5.60;97.90;;;;;;4376344;32;20173;-65
2021/03/22 05:23:41;;;;;;;34.20;6.97;;;5.70;97.70;;;;;;4383842;32;20179;-69
2021/03/22 05:26:11;;;;;;;28.50;6.53;;;5.70;97.70;;;;;;4382994;32;20372;-66
2021/03/22 05:28:40;;;;;;;25.20;6.13;;;5.70;97.70;;;;;;4389514;32;20216;-64
2021/03/22 05:31:07;;;;;;;28.03;6.40;;;5.70;97.50;;;;;;4380352;32;20153;-62
2021/03/22 05:33:37;;;;;;;25.07;5.90;;;5.60;97.70;;;;;;4378515;32;20156;-67
2021/03/22 05:36:12;;;;;;;28.63;6.57;;;5.50;97.70;;;;;;4378665;32;20199;-67
2021/03/22 05:38:38;;;;;;;21.57;5.80;;;5.50;97.80;;;;;;4382162;32;20178;-63
2021/03/22 05:41:08;;;;;;;29.67;7.13;;;5.60;97.70;;;;;;4375025;32;20498;-66
2021/03/22 05:43:51;;;;;;;23.83;5.33;;;5.60;97.60;;;;;;4377459;32;20160;-67
2021/03/22 05:46:29;;;;;;;26.27;5.97;;;5.60;97.70;;;;;;4380341;32;20257;-68
2021/03/22 05:49:36;;;;;;;21.77;4.77;;;5.70;97.50;;;;;;4380906;32;20190;-68
2021/03/22 05:52:18;;;;;;;21.27;5.20;;;5.70;97.60;;;;;;4381933;32;20227;-64
2021/03/22 05:55:02;;;;;;;25.33;5.33;;;5.60;97.60;;;;;;4390212;32;20187;-64
2021/03/22 05:57:54;;;;;;;22.30;5.60;;;5.60;97.60;;;;;;4390932;32;20174;-64
2021/03/22 06:00:43;;;;;;;28.57;5.80;;;5.60;97.60;;;;;;4387371;32;20191;-67
2021/03/22 06:06:30;;;;;;;15.53;5.00;;;5.60;97.70;;;;;;4280381;33;20226;-65
2021/03/22 06:09:08;;;;;;;24.07;5.80;;;5.60;97.80;;;;;;4289700;33;20342;-63
2021/03/22 06:11:49;;;;;;;20.97;5.53;;;5.70;97.70;;;;;;4282084;33;20165;-63
2021/03/22 06:14:26;;;;;;;23.17;4.90;;;5.80;97.50;;;;;;4268574;33;20185;-66
2021/03/22 06:17:00;;;;;;;21.30;5.50;;;5.90;97.30;;;;;;4284846;33;20587;-64
2021/03/22 06:19:30;;;;;;;24.77;5.07;;;5.90;97.10;;;;;;4287827;33;20487;-63
2021/03/22 06:21:58;;;;;;;22.90;5.40;;;5.80;97.20;;;;;;4285760;33;20291;-65
2021/03/22 06:24:29;;;;;;;21.53;5.03;;;5.90;97.10;;;;;;4288092;33;20224;-70
2021/03/22 06:26:59;;;;;;;22.60;4.83;;;6.10;96.90;;;;;;4284920;33;20637;-64
2021/03/22 06:29:30;;;;;;;19.27;4.63;;;6.00;96.80;;;;;;4273010;33;20236;-65
2021/03/22 06:32:21;;;;;;;20.23;4.20;;;6.10;96.80;;;;;;4328841;33;20223;-65
2021/03/22 06:34:56;;;;;;;18.60;4.80;;;6.10;96.60;;;;;;4328321;33;20201;-64
2021/03/22 06:37:25;;;;;;;21.80;4.83;;;6.20;96.40;;;;;;4328881;33;20168;-65
2021/03/22 06:40:01;;;;;;;20.40;5.07;;;6.20;96.40;;;;;;4327501;33;20164;-64
2021/03/22 06:42:28;;;;;;;20.60;4.17;;;6.20;96.40;;;;;;4340990;32;20198;-66
2021/03/22 06:44:57;;;;;;;16.00;4.20;;;6.40;96.30;;;;;;4384189;32;20156;-68
2021/03/22 06:47:34;;;;;;;21.20;4.80;;;6.50;96.10;;;;;;4392706;32;20198;-64
2021/03/22 06:50:52;;;;;;;18.20;4.40;;;6.40;95.80;;;;;;4386342;32;20592;-64
2021/03/22 06:53:39;;;;;;;16.27;4.13;;;6.40;95.80;;;;;;4379711;32;20239;-65
2021/03/22 06:56:16;;;;;;;13.83;4.03;;;6.20;96.00;;;;;;4386204;32;20172;-66
2021/03/22 06:59:07;;;;;;;20.50;4.17;;;6.30;96.10;;;;;;4388306;32;20192;-65
2021/03/22 07:01:37;;;;;;;16.57;4.57;;;6.30;96.10;;;;;;4385854;32;20681;-66
2021/03/22 07:04:31;;;;;;;21.57;4.53;;;6.40;96.10;;;;;;4383346;32;20144;-65
2021/03/22 07:07:11;;;;;;;10.30;3.37;;;6.40;96.10;;;;;;4341293;33;20200;-66
2021/03/22 07:09:42;;;;;;;18.50;4.60;;;6.40;96.20;;;;;;4340979;33;20337;-67
2021/03/22 07:12:30;;;;;;;17.80;4.43;;;6.50;96.30;;;;;;4338423;33;20207;-65
2021/03/22 07:15:16;;;;;;;15.23;3.60;;;6.80;95.60;;;;;;4340032;33;20173;-65
2021/03/22 07:17:42;;;;;;;16.70;3.73;;;6.80;95.10;;;;;;4341121;33;20667;-64
2021/03/22 07:20:25;;;;;;;9.50;2.97;;;7.10;94.80;;;;;;4342871;33;20197;-67
2021/03/22 07:23:05;;;;;;;15.70;3.53;;;7.10;94.40;;;;;;4346964;33;20169;-68
2021/03/22 07:25:38;;;;;;;16.93;2.93;;;7.00;94.30;;;;;;4347803;33;20207;-65
2021/03/22 07:28:11;;;;;;;17.67;3.40;;;7.30;93.80;;;;;;4337997;33;20168;-64
2021/03/22 07:30:42;;;;;;;14.27;2.90;;;7.80;92.30;;;;;;4339673;33;20667;-65
2021/03/22 07:33:23;;;;;;;12.20;2.63;;;7.70;91.60;;;;;;4337108;33;20212;-65
2021/03/22 07:36:23;;;;;;;10.33;3.30;;;8.00;91.60;;;;;;4342465;33;20544;-65
2021/03/22 07:39:15;;;;;;;12.67;3.70;;;7.80;92.00;;;;;;4318373;33;20169;-66
2021/03/22 07:42:05;;;;;;;12.23;4.03;;;8.00;92.10;;;;;;4311207;33;20229;-66
2021/03/22 07:44:54;;;;;;;15.77;3.30;;;8.10;92.20;;;;;;4355022;32;20188;-66
2021/03/22 07:47:46;;;;;;;19.10;3.43;;;8.30;91.60;;;;;;4342304;33;20176;-67
2021/03/22 07:50:29;;;;;;;10.93;3.20;;;8.60;91.00;;;;;;4338653;33;20595;-67
2021/03/22 07:53:01;;;;;;;11.40;2.83;;;8.40;91.30;;;;;;4341202;33;20195;-66
2021/03/22 07:55:44;;;;;;;10.33;2.70;;;8.00;91.20;;;;;;4343132;33;20285;-68
2021/03/22 07:58:23;;;;;;;10.10;3.10;;;8.10;91.90;;;;;;4342597;33;20161;-65
2021/03/22 08:01:05;;;;;;;17.87;3.07;;;8.10;91.50;;;;;;4342298;33;20168;-67
2021/03/22 08:03:38;;;;;;;10.13;2.70;;;8.10;91.70;;;;;;4342462;33;20183;-66
2021/03/22 08:06:32;;;;;;;8.93;2.43;;;8.30;91.40;;;;;;4337549;33;20508;-65
2021/03/22 08:09:23;;;;;;;7.30;2.30;;;8.30;91.50;;;;;;4344580;33;20184;-66
2021/03/22 08:11:57;;;;;;;5.97;1.37;;;8.80;90.20;;;;;;4348610;32;20273;-66
2021/03/22 08:14:30;;;;;;;9.90;1.83;;;8.10;86.20;;;;;;4375315;32;20201;-65
2021/03/22 08:17:17;;;;;;;6.33;1.90;;;8.20;87.80;;;;;;4374893;32;20175;-66
2021/03/22 08:19:51;;;;;;;6.23;1.57;;;8.20;86.50;;;;;;4374845;32;20165;-66
2021/03/22 08:22:24;;;;;;;3.53;1.20;;;8.10;87.90;;;;;;4373153;32;20178;-65
2021/03/22 08:25:11;;;;;;;5.70;1.33;;;8.30;87.80;;;;;;4370975;32;20225;-66
2021/03/22 08:27:47;;;;;;;8.13;1.33;;;8.10;87.50;;;;;;4372291;32;20713;-67
2021/03/22 08:30:31;;;;;;;7.97;1.37;;;7.80;87.60;;;;;;4376295;32;20560;-68
2021/03/22 08:33:04;;;;;;;3.30;0.93;;;7.40;88.50;;;;;;4375844;32;20200;-66
2021/03/22 08:35:40;;;;;;;6.03;1.10;;;7.30;89.30;;;;;;4373501;32;20186;-67
2021/03/22 08:38:12;;;;;;;5.13;1.30;;;7.80;88.60;;;;;;4376763;32;20228;-65
2021/03/22 08:40:55;;;;;;;4.10;0.93;;;8.70;83.70;;;;;;4374543;32;20177;-66
2021/03/22 08:43:32;;;;;;;4.33;0.70;;;9.20;82.90;;;;;;4382314;32;20171;-67
2021/03/22 08:46:20;;;;;;;2.97;0.60;;;9.80;79.90;;;;;;4385953;32;20186;-66
2021/03/22 08:48:47;;;;;;;6.00;1.03;;;10.70;74.90;;;;;;4387805;32;20191;-66
2021/03/22 08:51:25;;;;;;;2.03;0.77;;;9.50;77.50;;;;;;4388913;32;20156;-67
2021/03/22 08:53:57;;;;;;;5.87;0.60;;;9.80;76.60;;;;;;4391418;32;20592;-67
2021/03/22 08:56:36;;;;;;;1.07;0.50;;;9.60;75.60;;;;;;4385985;32;20186;-66
2021/03/22 08:59:20;;;;;;;2.60;0.60;;;10.00;75.70;;;;;;4381983;32;20178;-66
2021/03/22 09:01:52;;;;;;;2.10;0.50;;;9.00;76.80;;;;;;4384227;32;20604;-67
2021/03/22 09:04:36;;;;;;;4.13;0.87;;;9.90;75.10;;;;;;4389206;32;20196;-67
2021/03/22 09:07:34;;;;;;;1.87;0.80;;;10.30;74.00;;;;;;4383901;32;20661;-66
2021/03/22 09:10:40;;;;;;;2.37;0.77;;;10.20;75.10;;;;;;4386283;32;20167;-66
2021/03/22 09:13:52;;;;;;;;;;;;;;;;;;;;;
2021/03/22 09:16:50;;;;;;;4.60;0.70;;;10.20;76.10;;;;;;4323700;33;20162;-66
2021/03/22 09:19:50;;;;;;;4.03;1.80;;;10.00;76.50;;;;;;4323095;33;20519;-66
2021/03/22 09:22:59;;;;;;;2.67;0.50;;;9.80;77.50;;;;;;4327350;33;20172;-66
2021/03/22 09:26:06;;;;;;;4.43;0.70;;;8.70;77.90;;;;;;4315064;33;20583;-66
2021/03/22 09:29:44;;;;;;;0.90;0.50;;;8.50;79.90;;;;;;4328848;33;20174;-67
2021/03/22 09:32:45;;;;;;;1.50;0.70;;;9.10;79.90;;;;;;4327480;33;20150;-67
2021/03/22 09:36:07;;;;;;;2.23;0.53;;;9.10;77.90;;;;;;4320504;33;20234;-66
2021/03/22 09:39:04;;;;;;;1.70;0.40;;;8.90;78.00;;;;;;4328798;33;20233;-66
2021/03/22 09:42:23;;;;;;;0.70;0.40;;;8.60;77.60;;;;;;4313009;33;20513;-67
2021/03/22 09:48:58;;;;;;;;;;;;;;;;;;;;;
2021/03/22 09:52:16;;;;;;;2.07;0.37;;;10.10;73.00;;;;;;4242206;33;20188;-65
2021/03/22 09:55:31;;;;;;;1.93;0.40;;;11.10;69.50;;;;;;4170589;34;20173;-66
2021/03/22 09:58:26;;;;;;;3.30;0.50;;;11.50;67.00;;;;;;4172403;34;20223;-67
2021/03/22 10:01:03;;;;;;;3.13;0.50;;;10.80;68.00;;;;;;4165106;34;20176;-67
2021/03/22 10:04:00;;;;;;;;;;;;;;;;;;;;;
2021/03/22 10:10:06;;;;;;;3.20;0.50;;;10.10;72.60;;;;;;4145769;34;20158;-65
2021/03/22 10:12:41;;;;;;;3.70;0.90;;;9.80;71.20;;;;;;4139818;34;20182;-66
2021/03/22 10:15:40;;;;;;;;;;;;;;;;;;;;;
2021/03/22 10:18:20;;;;;;;1.80;0.70;;;9.10;74.90;;;;;;4150101;34;20156;-66
2021/03/22 10:24:26;;;;;;;0.83;0.53;;;9.60;74.10;;;;;;4155565;34;20750;-65
2021/03/22 10:26:58;;;;;;;1.63;0.50;;;8.80;73.70;;;;;;4204957;34;20169;-66
2021/03/22 10:29:30;;;;;;;3.13;0.60;;;9.00;74.20;;;;;;4199795;33;20168;-65
2021/03/22 10:32:23;;;;;;;1.17;0.63;;;9.40;74.10;;;;;;4214411;34;20311;-67
2021/03/22 10:37:59;;;;;;;2.30;0.60;;;9.90;72.10;;;;;;4227461;34;20259;-65
2021/03/22 10:40:37;;;;;;;4.27;0.80;;;10.30;72.20;;;;;;4227177;34;20191;-67
2021/03/22 10:43:22;;;;;;;2.87;0.50;;;9.40;72.70;;;;;;4232171;33;20168;-68
2021/03/22 10:45:48;;;;;;;2.07;0.60;;;9.50;73.70;;;;;;4262336;33;20245;-66
2021/03/22 10:48:40;;;;;;;0.67;0.50;;;9.50;71.80;;;;;;4333864;32;20153;-66
2021/03/22 10:51:19;;;;;;;0.43;0.23;;;9.60;73.10;;;;;;4342690;33;20189;-68
2021/03/22 10:54:05;;;;;;;2.03;0.40;;;9.90;71.90;;;;;;4359798;32;20188;-67
2021/03/22 10:56:43;;;;;;;1.13;0.33;;;10.10;71.20;;;;;;4366177;32;20168;-67
2021/03/22 10:59:29;;;;;;;2.10;0.53;;;9.90;71.70;;;;;;4366101;32;20294;-67
2021/03/22 11:11:43;;;;;;;3.17;0.50;;;10.30;71.20;;;;;;4362652;32;20179;-69
2021/03/22 11:14:14;;;;;;;4.50;1.00;;;10.70;70.90;;;;;;4359233;33;20239;-68
2021/03/22 11:16:44;;;;;;;2.00;0.70;;;11.50;70.80;;;;;;4360494;33;20598;-68
2021/03/22 11:19:35;;;;;;;3.13;0.70;;;11.50;68.10;;;;;;4363145;32;20261;-67
2021/03/22 11:22:01;;;;;;;2.13;0.60;;;11.10;67.80;;;;;;4361988;32;20191;-68
2021/03/22 11:24:41;;;;;;;0.73;0.53;;;10.80;69.20;;;;;;4357718;32;20197;-65
2021/03/22 11:27:11;;;;;;;1.63;0.80;;;9.80;70.40;;;;;;4361644;33;20585;-69
2021/03/22 11:29:53;;;;;;;1.20;0.60;;;9.90;71.40;;;;;;4363542;32;20195;-67
2021/03/22 11:32:23;;;;;;;3.63;0.70;;;10.10;71.20;;;;;;4358035;32;20176;-68
2021/03/22 11:34:50;;;;;;;1.27;0.57;;;10.40;70.10;;;;;;4358902;33;20158;-68
2021/03/22 11:37:21;;;;;;;1.43;0.80;;;10.60;69.30;;;;;;4355644;33;20213;-67
2021/03/22 11:39:55;;;;;;;4.97;1.03;;;10.70;66.20;;;;;;4359096;32;20201;-66
2021/03/22 11:42:28;;;;;;;0.73;0.53;;;11.00;67.30;;;;;;4361139;32;20177;-69
2021/03/22 11:44:57;;;;;;;1.43;0.67;;;11.70;64.70;;;;;;4376166;32;20218;-70
2021/03/22 11:47:45;;;;;;;1.00;0.60;;;11.90;65.10;;;;;;4373060;32;20226;-69
2021/03/22 11:50:45;;;;;;;2.43;0.70;;;11.50;62.80;;;;;;4371733;32;20186;-70
2021/03/22 11:53:18;;;;;;;1.43;0.80;;;11.30;64.80;;;;;;4371386;32;20186;-68
2021/03/22 11:55:47;;;;;;;2.43;0.90;;;10.70;67.20;;;;;;4372251;32;20180;-69
2021/03/22 11:58:38;;;;;;;2.70;0.80;;;10.70;69.10;;;;;;4368749;32;20183;-66
2021/03/22 12:01:20;;;;;;;1.13;0.93;;;10.70;68.50;;;;;;4372817;32;20202;-66
2021/03/22 12:04:08;;;;;;;2.70;0.77;;;10.50;71.20;;;;;;4372391;32;20216;-67
2021/03/22 12:06:59;;;;;;;3.50;1.33;;;10.70;72.20;;;;;;4375551;32;20517;-66
2021/03/22 12:09:28;;;;;;;2.80;1.10;;;10.80;73.20;;;;;;4375054;32;20672;-65
2021/03/22 12:11:55;;;;;;;1.10;0.90;;;10.60;73.40;;;;;;4374999;32;20209;-69
2021/03/22 12:14:22;;;;;;;3.03;1.00;;;10.60;73.40;;;;;;4371139;32;20248;-69
2021/03/22 12:16:50;;;;;;;5.87;0.90;;;10.50;73.80;;;;;;4373084;32;20198;-69
2021/03/22 12:19:22;;;;;;;4.97;1.03;;;10.20;75.30;;;;;;4373966;32;20159;-68
2021/03/22 12:21:49;;;;;;;6.43;1.50;;;10.30;75.50;;;;;;4375323;32;20280;-70
2021/03/22 12:24:18;;;;;;;1.80;0.97;;;10.00;76.50;;;;;;4373207;32;20240;-69
2021/03/22 12:26:44;;;;;;;3.83;1.50;;;10.00;76.50;;;;;;4370999;32;20203;-67
2021/03/22 12:29:10;;;;;;;2.03;1.20;;;10.30;76.70;;;;;;4376260;32;20160;-70
2021/03/22 12:31:42;;;;;;;5.23;1.40;;;10.40;75.10;;;;;;4375900;32;20230;-68
2021/03/22 12:34:12;;;;;;;2.87;1.07;;;9.80;75.80;;;;;;4371481;32;20231;-68
2021/03/22 12:36:39;;;;;;;1.77;0.93;;;9.80;76.70;;;;;;4372095;32;20594;-66
2021/03/22 12:39:16;;;;;;;2.57;1.20;;;10.20;76.20;;;;;;4374030;32;20165;-68
2021/03/22 12:41:43;;;;;;;4.10;1.23;;;10.20;74.40;;;;;;4376206;32;20607;-69
2021/03/22 12:44:10;;;;;;;2.67;0.97;;;10.20;75.50;;;;;;4374540;32;20215;-68
2021/03/22 12:46:36;;;;;;;3.97;1.33;;;10.50;74.90;;;;;;4371785;32;20183;-69
2021/03/22 12:49:02;;;;;;;2.03;1.10;;;10.90;74.60;;;;;;4376024;32;20208;-68
2021/03/22 12:51:29;;;;;;;5.07;1.10;;;11.10;74.30;;;;;;4372780;32;20310;-67
2021/03/22 12:53:56;;;;;;;3.77;1.60;;;11.00;74.60;;;;;;4372517;32;20218;-68
2021/03/22 12:56:27;;;;;;;2.83;1.20;;;10.80;75.10;;;;;;4373155;32;20210;-67
2021/03/22 12:58:55;;;;;;;3.67;1.67;;;10.80;74.60;;;;;;4372154;32;20170;-66
2021/03/22 13:01:21;;;;;;;2.60;0.90;;;10.80;74.00;;;;;;4374117;32;20167;-68
2021/03/22 13:03:47;;;;;;;4.90;1.80;;;10.90;73.30;;;;;;4373182;32;20166;-68
2021/03/22 13:06:14;;;;;;;2.57;1.57;;;10.40;72.90;;;;;;4368465;32;20197;-68
2021/03/22 13:08:40;;;;;;;6.27;1.60;;;10.20;74.80;;;;;;4375806;32;20161;-68
2021/03/22 13:11:10;;;;;;;4.73;2.00;;;10.20;75.90;;;;;;4373997;32;20597;-69
2021/03/22 13:13:38;;;;;;;6.37;1.80;;;10.20;74.90;;;;;;4375332;32;20190;-69
2021/03/22 13:16:05;;;;;;;6.33;1.50;;;9.90;76.30;;;;;;4366645;32;20453;-67
2021/03/22 13:18:34;;;;;;;4.07;1.47;;;10.30;76.10;;;;;;4374146;32;20163;-70
2021/03/22 13:21:02;;;;;;;5.50;1.43;;;10.30;75.60;;;;;;4368110;32;20484;-69
2021/03/22 13:23:30;;;;;;;3.57;1.57;;;10.00;76.20;;;;;;4373297;32;20224;-67
2021/03/22 13:25:57;;;;;;;3.87;1.93;;;9.80;77.80;;;;;;4373631;32;20184;-70
2021/03/22 13:28:27;;;;;;;3.63;1.57;;;9.90;77.40;;;;;;4375868;32;20164;-70
2021/03/22 13:30:54;;;;;;;3.60;1.53;;;10.10;76.90;;;;;;4375088;32;20231;-68
2021/03/22 13:33:24;;;;;;;6.20;1.37;;;10.20;76.60;;;;;;4377000;32;20519;-69
2021/03/22 13:35:51;;;;;;;3.73;1.43;;;10.30;76.70;;;;;;4366616;32;20183;-68
2021/03/22 13:38:21;;;;;;;5.40;1.97;;;10.40;76.30;;;;;;4375724;32;20159;-68
2021/03/22 13:40:48;;;;;;;5.80;1.77;;;9.90;76.50;;;;;;4374646;32;20198;-68
2021/03/22 13:43:15;;;;;;;4.53;1.57;;;10.00;77.20;;;;;;4375039;32;20176;-68
2021/03/22 13:45:44;;;;;;;5.40;1.80;;;9.80;77.80;;;;;;4368565;32;20165;-68
2021/03/22 13:48:11;;;;;;;4.70;1.83;;;9.70;78.10;;;;;;4374840;32;20174;-66
2021/03/22 13:50:38;;;;;;;4.33;2.03;;;10.00;78.40;;;;;;4373950;32;20232;-66
2021/03/22 13:53:04;;;;;;;3.60;1.83;;;10.30;77.40;;;;;;4372010;32;20709;-68
2021/03/22 13:55:33;;;;;;;6.70;2.83;;;10.50;76.30;;;;;;4364038;32;20170;-68
2021/03/22 13:58:12;;;;;;;12.37;2.70;;;10.90;75.50;;;;;;4369314;32;20214;-69
2021/03/22 14:00:38;;;;;;;4.87;2.07;;;11.00;75.30;;;;;;4364642;32;20192;-66
2021/03/22 14:03:06;;;;;;;4.50;1.80;;;11.10;74.40;;;;;;4364425;32;20192;-66